sensor_id;sensor_type;location;lat;lon;timestamp;pressure;altitude;pressure_sealevel;temperature;humidity
15050;BME280;7622;42.724;23.250;2023-05-12T00:01:24;94847.59;;;9.11;100.00
15050;BME280;7622;42.724;23.250;2023-05-12T00:03:51;94844.47;;;9.17;100.00
15050;BME280;7622;42.724;23.250;2023-05-12T00:06:20;94846.94;;;9.18;100.00
15050;BME280;7622;42.724;23.250;2023-05-12T00:08:49;94848.53;;;9.09;100.00
15050;BME280;7622;42.724;23.250;2023-05-12T00:11:18;94845.81;;;9.11;100.00
15050;BME280;7622;42.724;23.250;2023-05-12T00:13:47;94851.38;;;9.06;100.00
15050;BME280;7622;42.724;23.250;2023-05-12T00:16:13;94847.97;;;9.06;100.00
15050;BME280;7622;42.724;23.250;2023-05-12T00:18:43;94854.25;;;9.03;100.00
15050;BME280;7622;42.724;23.250;2023-05-12T00:21:09;94840.47;;;9.03;100.00
15050;BME280;7622;42.724;23.250;2023-05-12T00:23:38;94842.34;;;8.91;100.00
15050;BME280;7622;42.724;23.250;2023-05-12T00:26:04;94850.84;;;9.03;100.00
15050;BME280;7622;42.724;23.250;2023-05-12T00:28:32;94846.28;;;8.95;100.00
15050;BME280;7622;42.724;23.250;2023-05-12T00:31:00;94851.47;;;8.95;100.00
15050;BME280;7622;42.724;23.250;2023-05-12T00:33:27;94853.38;;;8.93;100.00
15050;BME280;7622;42.724;23.250;2023-05-12T00:35:54;94848.34;;;8.92;100.00
15050;BME280;7622;42.724;23.250;2023-05-12T00:38:21;94848.97;;;8.84;100.00
15050;BME280;7622;42.724;23.250;2023-05-12T00:40:49;94856.66;;;8.95;100.00
15050;BME280;7622;42.724;23.250;2023-05-12T00:43:16;94858.50;;;8.84;100.00
15050;BME280;7622;42.724;23.250;2023-05-12T00:45:42;94853.34;;;8.84;100.00
15050;BME280;7622;42.724;23.250;2023-05-12T00:48:09;94852.13;;;8.67;100.00
15050;BME280;7622;42.724;23.250;2023-05-12T00:50:36;94862.69;;;8.75;100.00
15050;BME280;7622;42.724;23.250;2023-05-12T00:53:04;94859.78;;;8.68;100.00
15050;BME280;7622;42.724;23.250;2023-05-12T00:55:32;94863.06;;;8.71;100.00
15050;BME280;7622;42.724;23.250;2023-05-12T00:58:00;94862.09;;;8.72;100.00
15050;BME280;7622;42.724;23.250;2023-05-12T01:00:28;94860.16;;;8.64;100.00
15050;BME280;7622;42.724;23.250;2023-05-12T01:02:54;94863.00;;;8.61;100.00
15050;BME280;7622;42.724;23.250;2023-05-12T01:05:26;94874.59;;;8.46;100.00
15050;BME280;7622;42.724;23.250;2023-05-12T01:07:59;94856.78;;;8.32;100.00
15050;BME280;7622;42.724;23.250;2023-05-12T01:10:27;94870.66;;;8.42;100.00
15050;BME280;7622;42.724;23.250;2023-05-12T01:12:54;94849.31;;;8.17;100.00
15050;BME280;7622;42.724;23.250;2023-05-12T01:15:22;94865.50;;;8.30;100.00
15050;BME280;7622;42.724;23.250;2023-05-12T01:17:54;94857.25;;;8.37;100.00
15050;BME280;7622;42.724;23.250;2023-05-12T01:20:24;94867.06;;;8.22;100.00
15050;BME280;7622;42.724;23.250;2023-05-12T01:22:53;94868.56;;;8.24;100.00
15050;BME280;7622;42.724;23.250;2023-05-12T01:25:22;94878.22;;;8.22;100.00
15050;BME280;7622;42.724;23.250;2023-05-12T01:27:51;94877.91;;;8.16;100.00
15050;BME280;7622;42.724;23.250;2023-05-12T01:30:20;94848.59;;;7.95;100.00
15050;BME280;7622;42.724;23.250;2023-05-12T01:32:47;94884.16;;;8.02;100.00
15050;BME280;7622;42.724;23.250;2023-05-12T01:35:14;94890.53;;;7.98;100.00
15050;BME280;7622;42.724;23.250;2023-05-12T01:37:41;94877.16;;;7.93;100.00
15050;BME280;7622;42.724;23.250;2023-05-12T01:40:08;94878.03;;;8.03;100.00
15050;BME280;7622;42.724;23.250;2023-05-12T01:42:37;94876.50;;;8.12;100.00
15050;BME280;7622;42.724;23.250;2023-05-12T01:45:07;94895.00;;;7.96;100.00
15050;BME280;7622;42.724;23.250;2023-05-12T01:47:34;94887.22;;;7.96;100.00
15050;BME280;7622;42.724;23.250;2023-05-12T01:50:00;94890.53;;;7.98;100.00
15050;BME280;7622;42.724;23.250;2023-05-12T01:52:28;94883.66;;;7.76;100.00
15050;BME280;7622;42.724;23.250;2023-05-12T01:54:58;94892.00;;;7.69;100.00
15050;BME280;7622;42.724;23.250;2023-05-12T01:57:28;94876.00;;;7.75;100.00
15050;BME280;7622;42.724;23.250;2023-05-12T01:59:58;94873.91;;;7.69;100.00
15050;BME280;7622;42.724;23.250;2023-05-12T02:02:28;94883.75;;;7.75;100.00
15050;BME280;7622;42.724;23.250;2023-05-12T02:04:55;94887.09;;;7.66;100.00
15050;BME280;7622;42.724;23.250;2023-05-12T02:07:22;94886.59;;;7.61;100.00
15050;BME280;7622;42.724;23.250;2023-05-12T02:09:49;94880.28;;;7.65;100.00
15050;BME280;7622;42.724;23.250;2023-05-12T02:12:16;94879.56;;;7.63;100.00
15050;BME280;7622;42.724;23.250;2023-05-12T02:14:43;94881.81;;;7.56;100.00
15050;BME280;7622;42.724;23.250;2023-05-12T02:17:09;94880.03;;;7.57;100.00
15050;BME280;7622;42.724;23.250;2023-05-12T02:19:38;94884.53;;;7.43;100.00
15050;BME280;7622;42.724;23.250;2023-05-12T02:22:04;94881.25;;;7.53;100.00
15050;BME280;7622;42.724;23.250;2023-05-12T02:24:31;94886.41;;;7.53;100.00
15050;BME280;7622;42.724;23.250;2023-05-12T02:26:58;94882.88;;;7.42;100.00
15050;BME280;7622;42.724;23.250;2023-05-12T02:29:25;94881.13;;;7.43;100.00
15050;BME280;7622;42.724;23.250;2023-05-12T02:31:51;94880.53;;;7.50;100.00
15050;BME280;7622;42.724;23.250;2023-05-12T02:34:18;94886.19;;;7.44;100.00
15050;BME280;7622;42.724;23.250;2023-05-12T02:36:46;94886.66;;;7.38;100.00
15050;BME280;7622;42.724;23.250;2023-05-12T02:39:13;94874.31;;;7.31;100.00
15050;BME280;7622;42.724;23.250;2023-05-12T02:41:40;94870.47;;;7.25;100.00
15050;BME280;7622;42.724;23.250;2023-05-12T02:44:07;94879.38;;;7.21;100.00
15050;BME280;7622;42.724;23.250;2023-05-12T02:46:34;94885.59;;;7.19;100.00
15050;BME280;7622;42.724;23.250;2023-05-12T02:49:01;94868.44;;;7.06;100.00
15050;BME280;7622;42.724;23.250;2023-05-12T02:51:29;94884.78;;;7.18;100.00
15050;BME280;7622;42.724;23.250;2023-05-12T02:53:57;94866.94;;;7.04;100.00
15050;BME280;7622;42.724;23.250;2023-05-12T02:56:24;94885.47;;;7.09;100.00
15050;BME280;7622;42.724;23.250;2023-05-12T02:58:51;94885.00;;;7.15;100.00
15050;BME280;7622;42.724;23.250;2023-05-12T03:01:17;94886.19;;;7.11;100.00
15050;BME280;7622;42.724;23.250;2023-05-12T03:03:44;94894.16;;;7.08;100.00
15050;BME280;7622;42.724;23.250;2023-05-12T03:06:11;94889.94;;;7.07;100.00
15050;BME280;7622;42.724;23.250;2023-05-12T03:08:38;94895.19;;;7.05;100.00
15050;BME280;7622;42.724;23.250;2023-05-12T03:11:06;94880.78;;;7.03;100.00
15050;BME280;7622;42.724;23.250;2023-05-12T03:13:33;94890.88;;;7.06;100.00
15050;BME280;7622;42.724;23.250;2023-05-12T03:15:59;94882.53;;;7.02;100.00
15050;BME280;7622;42.724;23.250;2023-05-12T03:18:26;94896.50;;;7.00;100.00
15050;BME280;7622;42.724;23.250;2023-05-12T03:20:53;94883.84;;;6.97;100.00
15050;BME280;7622;42.724;23.250;2023-05-12T03:23:20;94898.03;;;7.02;100.00
15050;BME280;7622;42.724;23.250;2023-05-12T03:25:47;94899.31;;;7.08;100.00
15050;BME280;7622;42.724;23.250;2023-05-12T03:28:15;94905.09;;;7.11;100.00
15050;BME280;7622;42.724;23.250;2023-05-12T03:30:41;94906.03;;;7.22;100.00
15050;BME280;7622;42.724;23.250;2023-05-12T03:33:08;94890.16;;;7.15;100.00
15050;BME280;7622;42.724;23.250;2023-05-12T03:35:35;94903.81;;;7.17;100.00
15050;BME280;7622;42.724;23.250;2023-05-12T03:38:02;94892.28;;;7.21;100.00
15050;BME280;7622;42.724;23.250;2023-05-12T03:40:28;94911.28;;;7.20;100.00
15050;BME280;7622;42.724;23.250;2023-05-12T03:42:55;94909.19;;;7.14;100.00
15050;BME280;7622;42.724;23.250;2023-05-12T03:45:23;94906.84;;;7.22;100.00
15050;BME280;7622;42.724;23.250;2023-05-12T03:47:50;94912.13;;;7.21;100.00
15050;BME280;7622;42.724;23.250;2023-05-12T03:50:17;94926.81;;;7.31;100.00
15050;BME280;7622;42.724;23.250;2023-05-12T03:52:46;94905.31;;;7.31;100.00
15050;BME280;7622;42.724;23.250;2023-05-12T03:55:15;94916.00;;;7.37;100.00
15050;BME280;7622;42.724;23.250;2023-05-12T03:57:44;94912.25;;;7.41;100.00
15050;BME280;7622;42.724;23.250;2023-05-12T04:00:11;94904.97;;;7.35;100.00
15050;BME280;7622;42.724;23.250;2023-05-12T04:02:40;94910.16;;;7.46;100.00
15050;BME280;7622;42.724;23.250;2023-05-12T04:05:07;94919.78;;;7.44;100.00
15050;BME280;7622;42.724;23.250;2023-05-12T04:07:34;94920.47;;;7.35;100.00
15050;BME280;7622;42.724;23.250;2023-05-12T04:10:01;94920.69;;;7.43;100.00
15050;BME280;7622;42.724;23.250;2023-05-12T04:12:28;94901.34;;;7.38;100.00
15050;BME280;7622;42.724;23.250;2023-05-12T04:14:55;94926.56;;;7.57;100.00
15050;BME280;7622;42.724;23.250;2023-05-12T04:17:21;94925.53;;;7.59;100.00
15050;BME280;7622;42.724;23.250;2023-05-12T04:19:51;94922.81;;;7.49;100.00
15050;BME280;7622;42.724;23.250;2023-05-12T04:22:21;94911.88;;;7.57;100.00
15050;BME280;7622;42.724;23.250;2023-05-12T04:24:49;94926.56;;;7.57;100.00
15050;BME280;7622;42.724;23.250;2023-05-12T04:27:15;94920.09;;;7.62;100.00
15050;BME280;7622;42.724;23.250;2023-05-12T04:29:42;94927.50;;;7.67;100.00
15050;BME280;7622;42.724;23.250;2023-05-12T04:32:09;94927.81;;;7.84;100.00
15050;BME280;7622;42.724;23.250;2023-05-12T04:34:36;94923.88;;;7.58;100.00
15050;BME280;7622;42.724;23.250;2023-05-12T04:37:04;94926.91;;;7.63;100.00
15050;BME280;7622;42.724;23.250;2023-05-12T04:39:31;94930.34;;;7.53;100.00
15050;BME280;7622;42.724;23.250;2023-05-12T04:41:59;94929.25;;;7.55;100.00
15050;BME280;7622;42.724;23.250;2023-05-12T04:44:26;94934.22;;;7.58;100.00
15050;BME280;7622;42.724;23.250;2023-05-12T04:46:52;94937.25;;;7.63;100.00
15050;BME280;7622;42.724;23.250;2023-05-12T04:49:20;94935.59;;;7.62;100.00
15050;BME280;7622;42.724;23.250;2023-05-12T04:51:47;94935.00;;;7.70;100.00
15050;BME280;7622;42.724;23.250;2023-05-12T04:54:15;94924.69;;;7.81;100.00
15050;BME280;7622;42.724;23.250;2023-05-12T04:56:42;94933.59;;;7.77;100.00
15050;BME280;7622;42.724;23.250;2023-05-12T04:59:09;94936.28;;;7.75;100.00
15050;BME280;7622;42.724;23.250;2023-05-12T05:01:36;94934.06;;;7.71;100.00
15050;BME280;7622;42.724;23.250;2023-05-12T05:04:02;94935.94;;;7.69;100.00
15050;BME280;7622;42.724;23.250;2023-05-12T05:06:29;94925.72;;;7.78;100.00
15050;BME280;7622;42.724;23.250;2023-05-12T05:08:56;94935.47;;;7.86;100.00
15050;BME280;7622;42.724;23.250;2023-05-12T05:11:24;94932.78;;;7.87;100.00
15050;BME280;7622;42.724;23.250;2023-05-12T05:13:51;94916.69;;;7.73;100.00
15050;BME280;7622;42.724;23.250;2023-05-12T05:16:18;94932.19;;;7.84;100.00
15050;BME280;7622;42.724;23.250;2023-05-12T05:18:45;94934.75;;;7.95;100.00
15050;BME280;7622;42.724;23.250;2023-05-12T05:21:12;94926.63;;;7.88;100.00
15050;BME280;7622;42.724;23.250;2023-05-12T05:23:39;94886.25;;;7.65;100.00
15050;BME280;7622;42.724;23.250;2023-05-12T05:26:06;94949.19;;;7.98;100.00
15050;BME280;7622;42.724;23.250;2023-05-12T05:28:34;94945.44;;;7.90;100.00
15050;BME280;7622;42.724;23.250;2023-05-12T05:31:01;94942.16;;;7.88;100.00
15050;BME280;7622;42.724;23.250;2023-05-12T05:33:28;94942.59;;;8.05;100.00
15050;BME280;7622;42.724;23.250;2023-05-12T05:35:55;94951.78;;;7.98;100.00
15050;BME280;7622;42.724;23.250;2023-05-12T05:38:22;94919.25;;;7.84;100.00
15050;BME280;7622;42.724;23.250;2023-05-12T05:40:50;94947.31;;;8.00;100.00
15050;BME280;7622;42.724;23.250;2023-05-12T05:43:16;94941.66;;;8.06;100.00
15050;BME280;7622;42.724;23.250;2023-05-12T05:45:45;94943.41;;;8.05;100.00
15050;BME280;7622;42.724;23.250;2023-05-12T05:48:13;94943.78;;;8.01;100.00
15050;BME280;7622;42.724;23.250;2023-05-12T05:50:40;94949.75;;;8.12;100.00
15050;BME280;7622;42.724;23.250;2023-05-12T05:53:07;94951.78;;;8.09;100.00
15050;BME280;7622;42.724;23.250;2023-05-12T05:55:33;94959.38;;;8.21;100.00
15050;BME280;7622;42.724;23.250;2023-05-12T05:58:00;94952.69;;;8.19;100.00
15050;BME280;7622;42.724;23.250;2023-05-12T06:00:27;94956.78;;;8.33;100.00
15050;BME280;7622;42.724;23.250;2023-05-12T06:02:55;94930.66;;;8.36;100.00
15050;BME280;7622;42.724;23.250;2023-05-12T06:05:22;94955.66;;;8.57;100.00
15050;BME280;7622;42.724;23.250;2023-05-12T06:07:49;94952.53;;;8.43;100.00
15050;BME280;7622;42.724;23.250;2023-05-12T06:10:15;94968.94;;;8.53;100.00
15050;BME280;7622;42.724;23.250;2023-05-12T06:12:42;94957.56;;;8.44;100.00
15050;BME280;7622;42.724;23.250;2023-05-12T06:15:10;94964.25;;;8.47;100.00
15050;BME280;7622;42.724;23.250;2023-05-12T06:17:39;94962.56;;;8.36;100.00
15050;BME280;7622;42.724;23.250;2023-05-12T06:20:10;94970.16;;;8.49;100.00
15050;BME280;7622;42.724;23.250;2023-05-12T06:22:38;94964.50;;;8.44;100.00
15050;BME280;7622;42.724;23.250;2023-05-12T06:25:07;94967.56;;;8.49;100.00
15050;BME280;7622;42.724;23.250;2023-05-12T06:27:33;94976.16;;;8.49;100.00
15050;BME280;7622;42.724;23.250;2023-05-12T06:30:00;94967.63;;;8.58;100.00
15050;BME280;7622;42.724;23.250;2023-05-12T06:32:28;94972.66;;;8.71;100.00
15050;BME280;7622;42.724;23.250;2023-05-12T06:34:55;94967.91;;;8.76;100.00
15050;BME280;7622;42.724;23.250;2023-05-12T06:37:23;94978.16;;;8.78;100.00
15050;BME280;7622;42.724;23.250;2023-05-12T06:39:50;94969.75;;;8.85;100.00
15050;BME280;7622;42.724;23.250;2023-05-12T06:42:17;94986.38;;;8.83;100.00
15050;BME280;7622;42.724;23.250;2023-05-12T06:44:43;94968.38;;;9.02;100.00
15050;BME280;7622;42.724;23.250;2023-05-12T06:47:10;94978.28;;;8.97;100.00
15050;BME280;7622;42.724;23.250;2023-05-12T06:49:37;94987.88;;;8.85;100.00
15050;BME280;7622;42.724;23.250;2023-05-12T06:52:04;94979.88;;;8.88;100.00
15050;BME280;7622;42.724;23.250;2023-05-12T06:54:33;94960.53;;;8.92;100.00
15050;BME280;7622;42.724;23.250;2023-05-12T06:57:00;94913.88;;;8.51;100.00
15050;BME280;7622;42.724;23.250;2023-05-12T06:59:26;94968.94;;;8.85;100.00
15050;BME280;7622;42.724;23.250;2023-05-12T07:01:53;94969.69;;;8.96;100.00
15050;BME280;7622;42.724;23.250;2023-05-12T07:04:20;94968.16;;;8.94;100.00
15050;BME280;7622;42.724;23.250;2023-05-12T07:06:47;94975.50;;;9.09;100.00
15050;BME280;7622;42.724;23.250;2023-05-12T07:09:13;94974.06;;;9.17;100.00
15050;BME280;7622;42.724;23.250;2023-05-12T07:11:44;94967.09;;;9.17;100.00
15050;BME280;7622;42.724;23.250;2023-05-12T07:14:11;94971.66;;;9.25;100.00
15050;BME280;7622;42.724;23.250;2023-05-12T07:16:38;94984.22;;;9.29;100.00
15050;BME280;7622;42.724;23.250;2023-05-12T07:19:04;94974.16;;;9.36;100.00
15050;BME280;7622;42.724;23.250;2023-05-12T07:21:33;94977.47;;;9.38;100.00
15050;BME280;7622;42.724;23.250;2023-05-12T07:24:00;94979.84;;;9.30;100.00
15050;BME280;7622;42.724;23.250;2023-05-12T07:26:27;94983.97;;;9.32;100.00
15050;BME280;7622;42.724;23.250;2023-05-12T07:28:55;94986.94;;;9.28;100.00
15050;BME280;7622;42.724;23.250;2023-05-12T07:31:25;94969.16;;;9.44;100.00
15050;BME280;7622;42.724;23.250;2023-05-12T07:33:52;94977.19;;;9.41;100.00
15050;BME280;7622;42.724;23.250;2023-05-12T07:36:19;94977.53;;;9.57;100.00
15050;BME280;7622;42.724;23.250;2023-05-12T07:38:45;94973.31;;;9.56;100.00
15050;BME280;7622;42.724;23.250;2023-05-12T07:41:12;94984.81;;;9.63;100.00
15050;BME280;7622;42.724;23.250;2023-05-12T07:43:39;94981.69;;;9.69;100.00
15050;BME280;7622;42.724;23.250;2023-05-12T07:46:07;94983.88;;;9.43;100.00
15050;BME280;7622;42.724;23.250;2023-05-12T07:48:34;94972.44;;;9.46;100.00
15050;BME280;7622;42.724;23.250;2023-05-12T07:51:04;94954.66;;;9.41;100.00
15050;BME280;7622;42.724;23.250;2023-05-12T07:53:31;94975.56;;;9.40;100.00
15050;BME280;7622;42.724;23.250;2023-05-12T07:55:58;94977.19;;;9.71;100.00
15050;BME280;7622;42.724;23.250;2023-05-12T07:58:25;94973.84;;;9.80;100.00
15050;BME280;7622;42.724;23.250;2023-05-12T08:00:52;94957.78;;;10.06;100.00
15050;BME280;7622;42.724;23.250;2023-05-12T08:03:21;94974.56;;;10.51;100.00
15050;BME280;7622;42.724;23.250;2023-05-12T08:05:47;94960.22;;;10.47;100.00
15050;BME280;7622;42.724;23.250;2023-05-12T08:08:14;94967.72;;;10.60;100.00
15050;BME280;7622;42.724;23.250;2023-05-12T08:10:42;94975.25;;;10.53;100.00
15050;BME280;7622;42.724;23.250;2023-05-12T08:13:08;94973.06;;;10.49;100.00
15050;BME280;7622;42.724;23.250;2023-05-12T08:15:35;94975.94;;;10.55;100.00
15050;BME280;7622;42.724;23.250;2023-05-12T08:18:02;94972.81;;;10.71;100.00
15050;BME280;7622;42.724;23.250;2023-05-12T08:20:30;94979.91;;;10.59;100.00
15050;BME280;7622;42.724;23.250;2023-05-12T08:22:57;94974.03;;;10.86;100.00
15050;BME280;7622;42.724;23.250;2023-05-12T08:25:24;94944.78;;;10.75;100.00
15050;BME280;7622;42.724;23.250;2023-05-12T08:27:54;94968.28;;;10.83;100.00
15050;BME280;7622;42.724;23.250;2023-05-12T08:30:21;94970.75;;;11.13;100.00
15050;BME280;7622;42.724;23.250;2023-05-12T08:32:48;94974.72;;;10.98;100.00
15050;BME280;7622;42.724;23.250;2023-05-12T08:35:15;94977.28;;;11.07;100.00
15050;BME280;7622;42.724;23.250;2023-05-12T08:37:43;94979.47;;;11.22;100.00
15050;BME280;7622;42.724;23.250;2023-05-12T08:40:14;94975.09;;;11.22;100.00
15050;BME280;7622;42.724;23.250;2023-05-12T08:42:43;94986.19;;;11.15;100.00
15050;BME280;7622;42.724;23.250;2023-05-12T08:45:10;94952.69;;;10.83;100.00
15050;BME280;7622;42.724;23.250;2023-05-12T08:47:37;94971.00;;;11.10;100.00
15050;BME280;7622;42.724;23.250;2023-05-12T08:50:05;94969.75;;;11.24;100.00
15050;BME280;7622;42.724;23.250;2023-05-12T08:52:34;94968.50;;;11.28;100.00
15050;BME280;7622;42.724;23.250;2023-05-12T08:55:03;94971.78;;;11.39;100.00
15050;BME280;7622;42.724;23.250;2023-05-12T08:57:30;94967.19;;;11.04;100.00
15050;BME280;7622;42.724;23.250;2023-05-12T08:59:57;94976.16;;;11.29;100.00
15050;BME280;7622;42.724;23.250;2023-05-12T09:02:26;94973.56;;;11.29;100.00
15050;BME280;7622;42.724;23.250;2023-05-12T09:04:54;94966.72;;;11.28;100.00
15050;BME280;7622;42.724;23.250;2023-05-12T09:07:21;94970.44;;;11.26;100.00
15050;BME280;7622;42.724;23.250;2023-05-12T09:09:53;94966.16;;;11.34;100.00
15050;BME280;7622;42.724;23.250;2023-05-12T09:12:24;94946.09;;;11.27;100.00
15050;BME280;7622;42.724;23.250;2023-05-12T09:14:58;94959.09;;;11.64;100.00
15050;BME280;7622;42.724;23.250;2023-05-12T09:17:25;94961.66;;;11.83;100.00
15050;BME280;7622;42.724;23.250;2023-05-12T09:19:52;94957.03;;;12.04;100.00
15050;BME280;7622;42.724;23.250;2023-05-12T09:22:27;94953.66;;;12.21;100.00
15050;BME280;7622;42.724;23.250;2023-05-12T09:24:53;94955.25;;;12.50;100.00
15050;BME280;7622;42.724;23.250;2023-05-12T09:27:24;94956.22;;;12.49;100.00
15050;BME280;7622;42.724;23.250;2023-05-12T09:29:52;94944.44;;;12.45;100.00
15050;BME280;7622;42.724;23.250;2023-05-12T09:32:29;94951.97;;;12.66;100.00
15050;BME280;7622;42.724;23.250;2023-05-12T09:35:01;94940.50;;;12.94;100.00
15050;BME280;7622;42.724;23.250;2023-05-12T09:37:32;94942.00;;;12.96;100.00
15050;BME280;7622;42.724;23.250;2023-05-12T09:39:59;94949.75;;;12.88;100.00
15050;BME280;7622;42.724;23.250;2023-05-12T09:42:28;94948.91;;;13.06;100.00
15050;BME280;7622;42.724;23.250;2023-05-12T09:44:58;94953.47;;;13.03;100.00
15050;BME280;7622;42.724;23.250;2023-05-12T09:47:26;94947.28;;;13.05;100.00
15050;BME280;7622;42.724;23.250;2023-05-12T09:49:54;94954.28;;;13.22;100.00
15050;BME280;7622;42.724;23.250;2023-05-12T09:52:22;94951.09;;;13.36;100.00
15050;BME280;7622;42.724;23.250;2023-05-12T09:54:49;94954.44;;;13.02;100.00
15050;BME280;7622;42.724;23.250;2023-05-12T09:57:19;94945.06;;;13.35;100.00
15050;BME280;7622;42.724;23.250;2023-05-12T09:59:48;94948.63;;;13.52;100.00
15050;BME280;7622;42.724;23.250;2023-05-12T10:02:15;94949.84;;;14.00;100.00
15050;BME280;7622;42.724;23.250;2023-05-12T10:04:48;94946.56;;;14.40;100.00
15050;BME280;7622;42.724;23.250;2023-05-12T10:07:15;94944.41;;;14.35;100.00
15050;BME280;7622;42.724;23.250;2023-05-12T10:09:44;94937.59;;;14.00;100.00
15050;BME280;7622;42.724;23.250;2023-05-12T10:12:12;94934.56;;;14.21;100.00
15050;BME280;7622;42.724;23.250;2023-05-12T10:14:42;94934.06;;;14.26;96.95
15050;BME280;7622;42.724;23.250;2023-05-12T10:17:13;94939.53;;;14.40;96.46
15050;BME280;7622;42.724;23.250;2023-05-12T10:19:42;94925.13;;;14.36;94.87
15050;BME280;7622;42.724;23.250;2023-05-12T10:22:10;94927.72;;;14.28;97.99
15050;BME280;7622;42.724;23.250;2023-05-12T10:24:38;94930.09;;;14.55;93.52
15050;BME280;7622;42.724;23.250;2023-05-12T10:27:06;94936.81;;;14.66;91.37
15050;BME280;7622;42.724;23.250;2023-05-12T10:29:34;94930.78;;;14.82;93.24
15050;BME280;7622;42.724;23.250;2023-05-12T10:32:03;94921.81;;;14.92;87.90
15050;BME280;7622;42.724;23.250;2023-05-12T10:34:34;94938.28;;;14.61;88.32
15050;BME280;7622;42.724;23.250;2023-05-12T10:37:03;94935.03;;;14.58;91.13
15050;BME280;7622;42.724;23.250;2023-05-12T10:39:32;94942.50;;;14.53;91.37
15050;BME280;7622;42.724;23.250;2023-05-12T10:42:00;94924.75;;;14.97;82.43
15050;BME280;7622;42.724;23.250;2023-05-12T10:44:29;94928.31;;;14.56;86.92
15050;BME280;7622;42.724;23.250;2023-05-12T10:46:56;94928.88;;;14.34;85.95
15050;BME280;7622;42.724;23.250;2023-05-12T10:49:31;94913.56;;;13.97;89.74
15050;BME280;7622;42.724;23.250;2023-05-12T10:51:59;94921.84;;;14.34;89.39
15050;BME280;7622;42.724;23.250;2023-05-12T10:54:26;94912.69;;;14.22;88.88
15050;BME280;7622;42.724;23.250;2023-05-12T10:56:57;94920.19;;;14.25;91.63
15050;BME280;7622;42.724;23.250;2023-05-12T10:59:25;94922.44;;;14.62;87.74
15050;BME280;7622;42.724;23.250;2023-05-12T11:02:00;94926.53;;;14.65;83.94
15050;BME280;7622;42.724;23.250;2023-05-12T11:04:38;94913.13;;;14.68;83.61
15050;BME280;7622;42.724;23.250;2023-05-12T11:07:08;94925.72;;;14.72;83.57
15050;BME280;7622;42.724;23.250;2023-05-12T11:09:36;94919.19;;;14.84;81.20
15050;BME280;7622;42.724;23.250;2023-05-12T11:12:05;94917.06;;;15.04;83.88
15050;BME280;7622;42.724;23.250;2023-05-12T11:14:33;94910.19;;;14.79;84.35
15050;BME280;7622;42.724;23.250;2023-05-12T11:16:59;94925.88;;;15.03;79.47
15050;BME280;7622;42.724;23.250;2023-05-12T11:19:26;94908.53;;;14.94;81.34
15050;BME280;7622;42.724;23.250;2023-05-12T11:21:53;94916.06;;;14.89;83.20
15050;BME280;7622;42.724;23.250;2023-05-12T11:24:22;94894.19;;;14.98;81.02
15050;BME280;7622;42.724;23.250;2023-05-12T11:26:49;94923.28;;;15.27;80.53
15050;BME280;7622;42.724;23.250;2023-05-12T11:29:17;94912.81;;;15.19;76.51
15050;BME280;7622;42.724;23.250;2023-05-12T11:31:46;94920.81;;;15.34;74.23
15050;BME280;7622;42.724;23.250;2023-05-12T11:34:14;94918.53;;;15.07;75.80
15050;BME280;7622;42.724;23.250;2023-05-12T11:36:42;94927.69;;;14.86;81.37
15050;BME280;7622;42.724;23.250;2023-05-12T11:39:14;94928.00;;;14.83;83.42
15050;BME280;7622;42.724;23.250;2023-05-12T11:41:43;94939.63;;;14.89;80.79
15050;BME280;7622;42.724;23.250;2023-05-12T11:44:14;94916.72;;;14.67;80.85
15050;BME280;7622;42.724;23.250;2023-05-12T11:46:41;94925.25;;;14.85;81.26
15050;BME280;7622;42.724;23.250;2023-05-12T11:49:18;94919.00;;;15.18;75.24
15050;BME280;7622;42.724;23.250;2023-05-12T11:51:45;94927.38;;;14.97;74.67
15050;BME280;7622;42.724;23.250;2023-05-12T11:54:12;94913.78;;;14.70;76.18
15050;BME280;7622;42.724;23.250;2023-05-12T11:56:47;94926.22;;;14.84;76.65
15050;BME280;7622;42.724;23.250;2023-05-12T11:59:25;94919.84;;;14.78;77.28
15050;BME280;7622;42.724;23.250;2023-05-12T12:01:52;94920.66;;;14.95;72.92
15050;BME280;7622;42.724;23.250;2023-05-12T12:04:30;94919.84;;;14.78;71.37
15050;BME280;7622;42.724;23.250;2023-05-12T12:06:57;94927.91;;;14.35;71.23
15050;BME280;7622;42.724;23.250;2023-05-12T12:09:29;94919.34;;;14.58;71.29
15050;BME280;7622;42.724;23.250;2023-05-12T12:11:58;94918.34;;;14.51;71.01
15050;BME280;7622;42.724;23.250;2023-05-12T12:14:25;94918.03;;;14.71;71.73
15050;BME280;7622;42.724;23.250;2023-05-12T12:16:51;94904.94;;;14.87;71.72
15050;BME280;7622;42.724;23.250;2023-05-12T12:19:18;94919.31;;;15.15;70.82
15050;BME280;7622;42.724;23.250;2023-05-12T12:21:45;94916.03;;;15.37;68.86
15050;BME280;7622;42.724;23.250;2023-05-12T12:24:13;94922.09;;;15.22;69.59
15050;BME280;7622;42.724;23.250;2023-05-12T12:26:43;94934.84;;;14.68;73.51
15050;BME280;7622;42.724;23.250;2023-05-12T12:29:13;94924.56;;;14.67;74.66
15050;BME280;7622;42.724;23.250;2023-05-12T12:31:40;94923.59;;;14.84;75.36
15050;BME280;7622;42.724;23.250;2023-05-12T12:34:06;94926.16;;;14.43;76.22
15050;BME280;7622;42.724;23.250;2023-05-12T12:36:33;94923.56;;;14.51;79.50
15050;BME280;7622;42.724;23.250;2023-05-12T12:39:00;94918.81;;;14.55;76.14
15050;BME280;7622;42.724;23.250;2023-05-12T12:41:27;94930.41;;;14.52;75.89
15050;BME280;7622;42.724;23.250;2023-05-12T12:43:54;94926.81;;;14.53;74.83
15050;BME280;7622;42.724;23.250;2023-05-12T12:46:23;94912.22;;;14.35;75.93
15050;BME280;7622;42.724;23.250;2023-05-12T12:48:50;94919.31;;;14.67;75.91
15050;BME280;7622;42.724;23.250;2023-05-12T12:51:16;94905.44;;;14.82;73.74
15050;BME280;7622;42.724;23.250;2023-05-12T12:53:43;94906.25;;;14.67;72.77
15050;BME280;7622;42.724;23.250;2023-05-12T12:56:10;94938.91;;;14.46;76.21
15050;BME280;7622;42.724;23.250;2023-05-12T12:58:37;94923.13;;;14.22;77.73
15050;BME280;7622;42.724;23.250;2023-05-12T13:01:04;94902.53;;;14.19;78.96